Uraga Maru — JD2163 — position and weather

sailwx.info

Track history (hours):
 
Tides and Currents Weather Stations Pressure Air Temp Water Temp Dewpoint Dewpoint Depression Visibility Wind Speed Wind Dir Waves Ship Positions

Uraga Maru

Last reported at 2017-Jun-01 02:26 UTC. Time now 2017-Jun-29 03:47 UTC.
Position N 35°08' E 139°38'.
Warning: this ship's position is 28 days out of date.

Length 40 m; draft 2.8 m.

Type: Tug. MMSI: 431101119.

Date/timePositionNaut miles runAvg speedWind from/ knotsBaromVisibWave heightAir tempDewpointWater temp
2017-Jun-01 02:26N 35°08' E 139°38'0 0.0
2017-Jun-01 02:00N 35°08' E 139°38'0 0.0
2017-Jun-01 01:30N 35°08' E 139°38'0 0.0
2017-Jun-01 01:00N 35°08' E 139°38'3 6.3
2017-Jun-01 00:30N 35°07' E 139°41'612.1
2017-Jun-01 00:00N 35°13' E 139°45'510.6
2017-May-31 23:30N 35°18' E 139°42'2 2.8
2017-May-31 22:56N 35°17' E 139°41'0 0.0
2017-May-31 22:29N 35°17' E 139°41'0 0.0
2017-May-31 21:57N 35°17' E 139°41'0 0.0
2017-May-31 21:26N 35°17' E 139°41'0 0.0
2017-May-31 20:15N 35°17' E 139°41'0 0.0
2017-May-31 20:00N 35°17' E 139°41'0 0.0
2017-May-31 19:30N 35°17' E 139°41'0 0.0
2017-May-31 19:00N 35°17' E 139°41'0 0.0
2017-May-31 18:30N 35°17' E 139°41'0 0.0
2017-May-31 18:00N 35°17' E 139°41'0 0.0
2017-May-31 17:30N 35°17' E 139°41'0 0.0
2017-May-31 17:00N 35°17' E 139°41'0 0.0
2017-May-31 16:30N 35°17' E 139°41'0 0.0
2017-May-31 16:00N 35°17' E 139°41'0 0.0
2017-May-31 15:30N 35°17' E 139°41'0 0.0
2017-May-31 15:00N 35°17' E 139°41'0 0.0
2017-May-31 14:30N 35°17' E 139°41'0 0.0
2017-May-31 13:30N 35°17' E 139°41'0 0.0
2017-May-31 13:00N 35°17' E 139°41'0 0.0
2017-May-31 12:28N 35°17' E 139°41'0 0.0
2017-May-31 12:00N 35°17' E 139°41'0 0.0
2017-May-31 11:30N 35°17' E 139°41'0 0.0
2017-May-31 11:00N 35°17' E 139°41'0 0.0
2017-May-31 10:30N 35°17' E 139°41'0 0.0
2017-May-31 10:00N 35°17' E 139°41'0 0.0
2017-May-31 09:30N 35°17' E 139°41'0 0.0
2017-May-31 09:00N 35°17' E 139°41'0 0.0
2017-May-31 08:30N 35°17' E 139°41'0 0.0
2017-May-31 08:00N 35°17' E 139°41'0 0.0
2017-May-31 07:30N 35°17' E 139°41'0 0.0
2017-May-31 07:00N 35°17' E 139°41'0 0.0
2017-May-31 06:30N 35°17' E 139°41'0 0.0
2017-May-31 06:00N 35°17' E 139°41'0 0.0
2017-May-31 05:28N 35°17' E 139°41'0 0.0
2017-May-31 05:00N 35°17' E 139°41'0 0.0
2017-May-31 04:30N 35°17' E 139°41'0 0.0
2017-May-31 04:00N 35°17' E 139°41'0 0.0
2017-May-31 03:29N 35°17' E 139°41'0 0.0
2017-May-31 03:00N 35°17' E 139°41'0 0.0
2017-May-31 02:30N 35°17' E 139°41'0 0.0
2017-May-31 02:00N 35°17' E 139°41'0 0.0
2017-May-31 01:30N 35°17' E 139°41'0 0.0
2017-May-31 00:59N 35°17' E 139°41'0 0.0
2017-May-31 00:29N 35°17' E 139°41'0 0.0
2017-May-30 23:54N 35°17' E 139°41'0 0.0
2017-May-30 23:30N 35°17' E 139°41'4 8.2
2017-May-30 23:00N 35°21' E 139°42'612.0
2017-May-30 22:30N 35°26' E 139°46'1 2.5
2017-May-30 21:59N 35°25' E 139°47'511.2
2017-May-30 21:30N 35°20' E 139°44'611.5
2017-May-30 21:01N 35°14' E 139°47'4 9.0
2017-May-30 20:31N 35°10' E 139°47'4 8.1
2017-May-30 20:00N 35°13' E 139°44'1 1.8
2017-May-30 19:30N 35°13' E 139°43'0 0.0
2017-May-30 18:56N 35°13' E 139°43'0 0.0
2017-May-30 18:26N 35°13' E 139°43'0 0.0
2017-May-30 17:55N 35°13' E 139°43'0 0.0
2017-May-30 17:27N 35°13' E 139°43'0 0.0
2017-May-30 16:57N 35°13' E 139°43'0 0.0
2017-May-30 16:28N 35°13' E 139°43'0 0.0
2017-May-30 15:57N 35°13' E 139°43'0 0.0
2017-May-30 15:23N 35°13' E 139°43'0 0.0
2017-May-30 14:55N 35°13' E 139°43'0 0.0
2017-May-30 14:31N 35°13' E 139°43'3 3.3
2017-May-30 13:31N 35°15' E 139°46'713.1
2017-May-30 13:00N 35°21' E 139°42'3 6.1
2017-May-30 12:30N 35°24' E 139°41'1 1.1
2017-May-30 12:00N 35°23' E 139°40'0 0.0
2017-May-30 11:30N 35°23' E 139°40'0 0.0
2017-May-30 11:00N 35°23' E 139°40'2 3.8
2017-May-30 10:30N 35°24' E 139°42'611.6
2017-May-30 09:59N 35°26' E 139°49'1 2.7
2017-May-30 09:31N 35°26' E 139°50'1 2.7
2017-May-30 09:01N 35°26' E 139°49'5 9.9
2017-May-30 08:30N 35°22' E 139°45'510.6
2017-May-30 08:00N 35°16' E 139°46'510.3
2017-May-30 07:30N 35°11' E 139°47'0 0.8
2017-May-30 07:00N 35°11' E 139°47'4 7.9
2017-May-30 06:30N 35°13' E 139°43'3 5.8
2017-May-30 06:00N 35°15' E 139°46'4 1.6
2017-May-30 03:13N 35°17' E 139°41'2 7.3
2017-May-30 02:59N 35°19' E 139°42'611.6
2017-May-30 02:30N 35°24' E 139°42'3 6.8
2017-May-30 02:00N 35°25' E 139°46'510.3
2017-May-30 01:30N 35°20' E 139°44'611.5
2017-May-30 00:59N 35°15' E 139°47'5 9.8
2017-May-30 00:31N 35°10' E 139°47'4 8.2
2017-May-30 00:00N 35°14' E 139°45'5 9.4
2017-May-29 23:30N 35°17' E 139°41'0 0.9
2017-May-29 23:01N 35°17' E 139°41'0 0.0
2017-May-29 22:31N 35°17' E 139°41'0 0.0
2017-May-29 22:00N 35°17' E 139°41'0 0.0
2017-May-29 21:30N 35°17' E 139°41'0 0.0
2017-May-29 20:59N 35°17' E 139°41'0 0.0
2017-May-29 20:30N 35°17' E 139°41'0 0.0
2017-May-29 20:00N 35°17' E 139°41'0 0.0
2017-May-29 19:29N 35°17' E 139°41'0 0.0
2017-May-29 18:46N 35°17' E 139°41'0 0.0
2017-May-29 18:31N 35°17' E 139°41'0 0.0
2017-May-29 18:00N 35°17' E 139°41'0 0.0
2017-May-29 17:30N 35°17' E 139°41'0 0.0
2017-May-29 17:00N 35°17' E 139°41'0 0.0
2017-May-29 16:27N 35°17' E 139°41'0 0.0
2017-May-29 16:00N 35°17' E 139°41'0 0.0
2017-May-29 15:30N 35°17' E 139°41'0 0.0
2017-May-29 14:59N 35°17' E 139°41'0 0.0
2017-May-29 14:31N 35°17' E 139°41'0 0.0
2017-May-29 13:30N 35°17' E 139°41'0 0.0
2017-May-29 12:48N 35°17' E 139°41'0 0.0
2017-May-29 12:31N 35°17' E 139°41'0 0.0
2017-May-29 12:00N 35°17' E 139°41'0 0.0
2017-May-29 11:29N 35°17' E 139°41'0 0.0
2017-May-29 10:59N 35°17' E 139°41'0 0.0
2017-May-29 10:30N 35°17' E 139°41'0 0.0
2017-May-29 10:00N 35°17' E 139°41'0 0.0
2017-May-29 09:13N 35°17' E 139°41'0 0.0
2017-May-29 09:00N 35°17' E 139°41'0 0.0
2017-May-29 08:29N 35°17' E 139°41'0 0.0
2017-May-29 07:57N 35°17' E 139°41'0 0.0
2017-May-29 07:29N 35°17' E 139°41'0 0.0
2017-May-29 06:58N 35°17' E 139°41'0 0.0
2017-May-29 06:29N 35°17' E 139°41'0 0.0
2017-May-29 06:00N 35°17' E 139°41'0 0.0
2017-May-29 05:30N 35°17' E 139°41'0 0.0
2017-May-29 05:00N 35°17' E 139°41'0 0.0
2017-May-29 04:30N 35°17' E 139°41'0 0.0
2017-May-29 04:00N 35°17' E 139°41'0 0.0
2017-May-29 03:30N 35°17' E 139°41'0 0.0
2017-May-29 03:00N 35°17' E 139°41'0 0.0
2017-May-29 02:30N 35°17' E 139°41'0 0.0
2017-May-29 02:00N 35°17' E 139°41'0 0.0
2017-May-29 01:30N 35°17' E 139°41'0 0.0
2017-May-29 01:00N 35°17' E 139°41'0 0.0
2017-May-29 00:30N 35°17' E 139°41'0 0.0
2017-May-28 23:51N 35°17' E 139°41'0 0.0
2017-May-28 23:28N 35°17' E 139°41'0 0.0
2017-May-28 23:00N 35°17' E 139°41'0 0.0
2017-May-28 22:30N 35°17' E 139°41'0 0.0
2017-May-28 22:00N 35°17' E 139°41'3 6.9
2017-May-28 21:31N 35°20' E 139°41'510.7
2017-May-28 21:00N 35°24' E 139°46'4 8.5
2017-May-28 20:29N 35°20' E 139°44'612.6
2017-May-28 20:00N 35°14' E 139°47'5 9.2
2017-May-28 19:30N 35°10' E 139°47'4 7.8
2017-May-28 19:00N 35°13' E 139°45'1 2.6
2017-May-28 18:30N 35°13' E 139°43'0 0.0
2017-May-28 17:46N 35°13' E 139°43'0 0.0
2017-May-28 17:30N 35°13' E 139°43'0 0.0
2017-May-28 16:59N 35°13' E 139°43'0 0.0
2017-May-28 16:28N 35°13' E 139°43'0 0.0
2017-May-28 15:58N 35°13' E 139°43'0 0.0
2017-May-28 15:27N 35°13' E 139°43'0 0.0
2017-May-28 14:59N 35°13' E 139°43'0 0.0
2017-May-28 14:25N 35°13' E 139°43'0 0.0
2017-May-28 13:15N 35°13' E 139°43'0 0.0
2017-May-28 13:00N 35°13' E 139°43'0 0.0
2017-May-28 12:30N 35°13' E 139°43'0 0.0
2017-May-28 11:59N 35°13' E 139°43'0 0.0
2017-May-28 11:21N 35°13' E 139°43'2 4.7
2017-May-28 11:00N 35°13' E 139°45'3 6.3
2017-May-28 10:30N 35°16' E 139°46'612.4
2017-May-28 10:01N 35°22' E 139°42'3 6.7
2017-May-28 09:30N 35°25' E 139°43'1 1.7
2017-May-28 09:00N 35°25' E 139°42'3 6.5
2017-May-28 08:30N 35°22' E 139°42'612.1
2017-May-28 08:01N 35°16' E 139°46'612.7
2017-May-28 07:31N 35°10' E 139°47'2 4.0
2017-May-28 07:00N 35°12' E 139°46'3 5.9
2017-May-28 06:30N 35°13' E 139°43'4 7.2
2017-May-28 05:59N 35°17' E 139°44'3 6.1
2017-May-28 05:31N 35°17' E 139°41'0 0.0
2017-May-28 05:00N 35°17' E 139°41'0 0.0
2017-May-28 04:30N 35°17' E 139°41'0 0.0
2017-May-28 04:01N 35°17' E 139°41'0 0.1
2017-May-28 03:30N 35°17' E 139°41'0 0.1
2017-May-28 03:00N 35°17' E 139°41'0 0.0
2017-May-28 02:30N 35°17' E 139°41'0 0.0
2017-May-28 02:00N 35°17' E 139°41'0 0.0
2017-May-28 01:31N 35°17' E 139°41'0 0.0
2017-May-28 01:00N 35°17' E 139°41'0 0.0
2017-May-28 00:30N 35°17' E 139°41'0 0.1
2017-May-28 00:00N 35°17' E 139°41'0 0.1
2017-May-27 23:31N 35°17' E 139°41'0 0.5
2017-May-27 23:01N 35°17' E 139°41'0 0.5
2017-May-27 22:30N 35°17' E 139°41'0 0.0
2017-May-27 22:00N 35°17' E 139°41'0 0.0
2017-May-27 21:30N 35°17' E 139°41'0 0.0
2017-May-27 21:00N 35°17' E 139°41'0 0.0
2017-May-27 20:30N 35°17' E 139°41'0 0.0
2017-May-27 20:00N 35°17' E 139°41'0 0.0
2017-May-27 19:31N 35°17' E 139°41'0 0.0
2017-May-27 19:01N 35°17' E 139°41'0 0.0
2017-May-27 18:30N 35°17' E 139°41'0 0.0
2017-May-27 18:00N 35°17' E 139°41'0 0.0
2017-May-27 17:30N 35°17' E 139°41'0 0.0
2017-May-27 17:00N 35°17' E 139°41'0 0.0
2017-May-27 16:31N 35°17' E 139°41'0 0.0
2017-May-27 16:00N 35°17' E 139°41'0 0.0
2017-May-27 15:30N 35°17' E 139°41'0 0.0
2017-May-27 15:00N 35°17' E 139°41'0 0.0
2017-May-27 14:30N 35°17' E 139°41'0 0.0
2017-May-27 13:31N 35°17' E 139°41'0 0.0
2017-May-27 13:00N 35°17' E 139°41'0 0.0
2017-May-27 12:28N 35°17' E 139°41'0 0.0
2017-May-27 11:57N 35°17' E 139°41'0 0.0
2017-May-27 10:52N 35°17' E 139°41'0 0.0
2017-May-27 08:51N 35°17' E 139°41'0 0.0
2017-May-27 08:25N 35°17' E 139°41'0 0.0
2017-May-27 08:00N 35°17' E 139°41'0 0.0
2017-May-27 07:26N 35°17' E 139°41'0 0.0
2017-May-27 07:00N 35°17' E 139°41'0 0.0
2017-May-27 06:30N 35°17' E 139°41'0 0.0
2017-May-27 05:49N 35°17' E 139°41'0 0.0
2017-May-27 03:50N 35°17' E 139°41'0 0.0
2017-May-27 03:29N 35°17' E 139°41'1 2.6
2017-May-27 03:00N 35°18' E 139°42'5 9.7
2017-May-27 02:30N 35°14' E 139°45'2 3.5
2017-May-27 02:01N 35°15' E 139°46'612.0
2017-May-27 01:31N 35°20' E 139°42'611.6
2017-May-27 01:00N 35°26' E 139°45'3 6.4
2017-May-27 00:31N 35°28' E 139°47'0 0.4
2017-May-27 00:00N 35°29' E 139°47'1 1.6
2017-May-26 23:30N 35°28' E 139°46'0 0.5
2017-May-26 23:00N 35°28' E 139°46'4 8.5
2017-May-26 22:30N 35°24' E 139°44'4 8.5
2017-May-26 22:00N 35°20' E 139°43'611.7
2017-May-26 21:30N 35°15' E 139°47'5 9.8
2017-May-26 21:00N 35°10' E 139°47'3 6.7
2017-May-26 20:30N 35°13' E 139°46'510.8
2017-May-26 20:00N 35°18' E 139°42'1 1.8
2017-May-26 19:27N 35°17' E 139°41'0 0.0
2017-May-26 19:00N 35°17' E 139°41'0 0.1
2017-May-26 18:30N 35°17' E 139°41'0 0.1
2017-May-26 17:59N 35°17' E 139°41'0 0.0
2017-May-26 17:30N 35°17' E 139°41'0 0.0
2017-May-26 17:00N 35°17' E 139°41'0 0.1
2017-May-26 16:30N 35°17' E 139°41'0 0.1
2017-May-26 16:00N 35°17' E 139°41'0 0.1
2017-May-26 15:30N 35°17' E 139°41'0 0.1
2017-May-26 15:00N 35°17' E 139°41'0 0.1
2017-May-26 14:30N 35°17' E 139°41'0 0.0
2017-May-26 13:30N 35°17' E 139°41'0 0.0
2017-May-26 13:00N 35°17' E 139°41'0 0.0
2017-May-26 12:30N 35°17' E 139°41'0 0.0
2017-May-26 12:00N 35°17' E 139°41'0 0.0
2017-May-26 11:30N 35°17' E 139°41'0 0.1
2017-May-26 11:00N 35°17' E 139°41'0 0.1
2017-May-26 10:30N 35°17' E 139°41'0 0.1
2017-May-26 10:00N 35°17' E 139°41'0 0.1
2017-May-26 09:30N 35°17' E 139°41'0 0.0
2017-May-26 09:00N 35°17' E 139°41'0 0.4
2017-May-26 08:30N 35°17' E 139°41'1 1.7
2017-May-26 08:00N 35°18' E 139°42'1 1.5
2017-May-26 07:21N 35°17' E 139°41'0 0.0
2017-May-26 07:00N 35°17' E 139°41'0 0.0
2017-May-26 06:30N 35°17' E 139°41'0 0.1
2017-May-26 06:00N 35°17' E 139°41'0 0.1
2017-May-26 05:30N 35°17' E 139°41'0 0.0
2017-May-26 05:00N 35°17' E 139°41'0 0.0
2017-May-26 04:30N 35°17' E 139°41'0 0.0
2017-May-26 03:57N 35°17' E 139°41'1 2.8
2017-May-26 03:30N 35°18' E 139°42'5 9.8
2017-May-26 03:00N 35°14' E 139°45'2 3.9
2017-May-26 02:30N 35°16' E 139°46'510.7
2017-May-26 02:00N 35°20' E 139°42'510.8
2017-May-26 01:30N 35°25' E 139°43'2 4.4
2017-May-26 01:00N 35°28' E 139°44'0 0.4
2017-May-26 00:30N 35°28' E 139°44'3 6.9
2017-May-26 00:00N 35°25' E 139°42'510.6
2017-May-25 23:30N 35°19' E 139°42'2 5.0
2017-May-25 23:00N 35°17' E 139°41'0 0.0
2017-May-25 22:30N 35°17' E 139°41'0 0.0
2017-May-25 22:00N 35°17' E 139°41'0 0.0
2017-May-25 21:30N 35°17' E 139°41'0 0.0
2017-May-25 21:00N 35°17' E 139°41'0 0.1
2017-May-25 20:30N 35°17' E 139°41'0 0.1
2017-May-25 20:00N 35°17' E 139°41'0 0.0
2017-May-25 19:30N 35°17' E 139°41'0 0.1
2017-May-25 19:00N 35°17' E 139°41'0 0.0
2017-May-25 18:30N 35°17' E 139°41'0 0.1
2017-May-25 18:00N 35°17' E 139°41'0 0.0
2017-May-25 17:30N 35°17' E 139°41'0 0.0
2017-May-25 17:00N 35°17' E 139°41'0 0.0
2017-May-25 16:30N 35°17' E 139°41'0 0.0
2017-May-25 16:00N 35°17' E 139°41'0 0.1
2017-May-25 15:30N 35°17' E 139°41'0 0.1
2017-May-25 15:00N 35°17' E 139°41'0 0.0
2017-May-25 14:00N 35°17' E 139°41'0 0.0
2017-May-25 13:30N 35°17' E 139°41'0 0.0
2017-May-25 13:00N 35°17' E 139°41'0 0.0
2017-May-25 12:30N 35°17' E 139°41'0 0.0
2017-May-25 12:00N 35°17' E 139°41'0 0.0
2017-May-25 11:30N 35°17' E 139°41'0 0.0
2017-May-25 11:00N 35°17' E 139°41'0 0.0
2017-May-25 10:30N 35°17' E 139°41'0 0.0
2017-May-25 10:00N 35°17' E 139°41'0 0.0
2017-May-25 09:30N 35°17' E 139°41'0 0.0
2017-May-25 09:00N 35°17' E 139°41'0 0.0
2017-May-25 08:30N 35°17' E 139°41'0 0.0
2017-May-25 08:00N 35°17' E 139°41'0 0.0
2017-May-25 07:30N 35°17' E 139°41'0 0.1
2017-May-25 07:00N 35°17' E 139°41'0 0.1
2017-May-25 06:30N 35°17' E 139°41'0 0.1
2017-May-25 06:00N 35°17' E 139°41'0 0.1
2017-May-25 05:30N 35°17' E 139°41'2 3.8
2017-May-25 05:00N 35°19' E 139°41'1 2.7
2017-May-25 04:30N 35°19' E 139°39'1 1.8
2017-May-25 04:00N 35°19' E 139°40'0 0.0
2017-May-25 03:29N 35°19' E 139°40'0 0.0
2017-May-25 03:00N 35°19' E 139°40'0 0.0
2017-May-25 02:30N 35°19' E 139°40'0 0.0
2017-May-25 02:00N 35°19' E 139°40'2 4.3
2017-May-25 01:30N 35°21' E 139°41'2 3.9
2017-May-25 01:00N 35°20' E 139°43'611.9
2017-May-25 00:30N 35°14' E 139°47'5 9.2
2017-May-25 00:00N 35°10' E 139°47'510.1
2017-May-24 23:30N 35°15' E 139°46'5 9.1
2017-May-24 22:59N 35°17' E 139°41'0 0.0
2017-May-24 21:22N 35°17' E 139°41'0 0.0
2017-May-24 21:00N 35°17' E 139°41'0 0.0
2017-May-24 20:31N 35°17' E 139°41'0 0.0
2017-May-24 20:01N 35°17' E 139°41'0 0.0
2017-May-24 19:15N 35°17' E 139°41'0 0.0
2017-May-24 17:33N 35°17' E 139°41'0 0.0
2017-May-24 17:20N 35°17' E 139°41'0 0.1
2017-May-24 16:58N 35°17' E 139°41'0 0.0
2017-May-24 16:30N 35°17' E 139°41'0 0.0
2017-May-24 15:56N 35°17' E 139°41'0 0.1
2017-May-24 15:30N 35°17' E 139°41'0 0.1
2017-May-24 14:49N 35°17' E 139°41'0 0.0
2017-May-24 14:28N 35°17' E 139°41'0 0.0
2017-May-24 13:29N 35°17' E 139°41'0 0.1
2017-May-24 13:00N 35°17' E 139°41'0 0.0
2017-May-24 12:30N 35°17' E 139°41'0 0.0
2017-May-24 11:16N 35°17' E 139°41'0 0.0
2017-May-24 10:57N 35°17' E 139°41'0 0.1
2017-May-24 10:26N 35°17' E 139°41'0 0.0
2017-May-24 09:53N 35°17' E 139°41'0 0.0
2017-May-24 09:29N 35°17' E 139°41'0 0.0
2017-May-24 09:00N 35°17' E 139°41'0 0.0
2017-May-24 08:31N 35°17' E 139°41'0 0.0
2017-May-24 07:59N 35°17' E 139°41'0 0.0
2017-May-24 07:31N 35°17' E 139°41'0 0.0
2017-May-24 07:01N 35°17' E 139°41'0 0.8
2017-May-24 06:31N 35°17' E 139°41'510.4
2017-May-24 06:00N 35°22' E 139°42'2 3.9
2017-May-24 05:30N 35°21' E 139°43'612.1
2017-May-24 05:00N 35°15' E 139°47'510.9
2017-May-24 04:30N 35°10' E 139°47'4 7.4
2017-May-24 04:00N 35°13' E 139°44'1 1.5
2017-May-24 03:28N 35°13' E 139°43'0 0.0
2017-May-24 02:59N 35°13' E 139°43'0 0.0
2017-May-24 02:29N 35°13' E 139°43'3 5.8
2017-May-24 02:00N 35°13' E 139°46'510.3
2017-May-24 01:30N 35°18' E 139°44'612.1
2017-May-24 01:00N 35°23' E 139°42'4 8.9
2017-May-24 00:30N 35°25' E 139°48'4 7.1
2017-May-24 00:00N 35°21' E 139°49'0 0.4
2017-May-23 23:30N 35°21' E 139°49'2 4.1
2017-May-23 23:00N 35°21' E 139°46'611.2
2017-May-23 22:30N 35°17' E 139°41'1 1.3
2017-May-23 22:00N 35°17' E 139°41'0 0.0
2017-May-23 21:30N 35°17' E 139°41'0 0.0
2017-May-23 20:58N 35°17' E 139°41'0 0.0
2017-May-23 20:30N 35°17' E 139°41'0 0.0
2017-May-23 19:59N 35°17' E 139°41'0 0.0
2017-May-23 19:29N 35°17' E 139°41'0 0.0
2017-May-23 18:58N 35°17' E 139°41'0 0.0
2017-May-23 18:30N 35°17' E 139°41'0 0.0
2017-May-23 18:00N 35°17' E 139°41'0 0.0
2017-May-23 17:30N 35°17' E 139°41'0 0.0
2017-May-23 17:00N 35°17' E 139°41'0 0.0
2017-May-23 16:28N 35°17' E 139°41'0 0.0
2017-May-23 15:58N 35°17' E 139°41'0 0.0
2017-May-23 15:30N 35°17' E 139°41'0 0.0
2017-May-23 15:00N 35°17' E 139°41'0 0.0
2017-May-23 14:25N 35°17' E 139°41'0 0.0
2017-May-23 13:30N 35°17' E 139°41'0 0.0
2017-May-23 12:59N 35°17' E 139°41'0 0.0
2017-May-23 12:29N 35°17' E 139°41'0 0.0
2017-May-23 12:00N 35°17' E 139°41'0 0.0
2017-May-23 11:29N 35°17' E 139°41'0 0.0
2017-May-23 10:51N 35°17' E 139°41'0 0.0
2017-May-23 10:30N 35°17' E 139°41'0 0.0
2017-May-23 09:58N 35°17' E 139°41'0 0.0
2017-May-23 09:28N 35°17' E 139°41'0 0.0
2017-May-23 09:00N 35°17' E 139°41'0 0.0
2017-May-23 08:30N 35°17' E 139°41'0 0.0
2017-May-23 08:00N 35°17' E 139°41'0 0.0
2017-May-23 07:30N 35°17' E 139°41'0 0.0
2017-May-23 07:00N 35°17' E 139°41'1 2.7
2017-May-23 06:31N 35°18' E 139°42'5 9.3
2017-May-23 06:00N 35°13' E 139°44'1 0.8
2017-May-23 04:39N 35°13' E 139°43'0 0.0
2017-May-23 04:30N 35°13' E 139°43'0 0.0
2017-May-23 04:00N 35°13' E 139°43'0 0.0
2017-May-23 03:30N 35°13' E 139°43'3 5.7
2017-May-23 03:00N 35°12' E 139°46'5 9.3
2017-May-23 02:29N 35°17' E 139°45'611.9
2017-May-23 02:00N 35°22' E 139°42'510.4
2017-May-23 01:30N 35°27' E 139°44'1 1.2
2017-May-23 01:00N 35°28' E 139°44'0 0.1
2017-May-23 00:30N 35°28' E 139°44'3 6.4
2017-May-23 00:00N 35°25' E 139°43'510.9
2017-May-22 23:30N 35°19' E 139°42'3 4.9
2017-May-22 22:59N 35°17' E 139°41'0 0.0
2017-May-22 22:29N 35°17' E 139°41'0 0.0
2017-May-22 22:00N 35°17' E 139°41'0 0.0
2017-May-22 21:30N 35°17' E 139°41'0 0.0
2017-May-22 20:54N 35°17' E 139°41'0 0.0
2017-May-22 20:29N 35°17' E 139°41'0 0.0
2017-May-22 20:00N 35°17' E 139°41'0 0.0
2017-May-22 19:14N 35°17' E 139°41'0 0.0
2017-May-22 17:55N 35°17' E 139°41'0 0.0
2017-May-22 17:28N 35°17' E 139°41'0 0.0
2017-May-22 16:59N 35°17' E 139°41'0 0.0
2017-May-22 16:30N 35°17' E 139°41'0 0.0
2017-May-22 16:00N 35°17' E 139°41'0 0.0
2017-May-22 15:30N 35°17' E 139°41'0 0.0
2017-May-22 15:00N 35°17' E 139°41'0 0.0
2017-May-22 13:58N 35°17' E 139°41'0 0.0
2017-May-22 13:29N 35°17' E 139°41'0 0.0
2017-May-22 13:00N 35°17' E 139°41'0 0.0
2017-May-22 12:30N 35°17' E 139°41'0 0.0
2017-May-22 12:00N 35°17' E 139°41'0 0.0
2017-May-22 11:29N 35°17' E 139°41'0 0.0
2017-May-22 11:00N 35°17' E 139°41'0 0.0
2017-May-22 10:29N 35°17' E 139°41'0 0.0
2017-May-22 10:00N 35°17' E 139°41'0 0.0
2017-May-22 09:30N 35°17' E 139°41'0 0.0
2017-May-22 09:00N 35°17' E 139°41'0 0.0
2017-May-22 08:22N 35°17' E 139°41'0 0.0
2017-May-22 07:59N 35°17' E 139°41'0 0.0
2017-May-22 07:26N 35°17' E 139°41'0 0.0
2017-May-22 06:52N 35°17' E 139°41'0 0.0
2017-May-22 06:26N 35°17' E 139°41'0 0.0
2017-May-22 05:58N 35°17' E 139°41'0 0.0
2017-May-22 05:30N 35°17' E 139°41'0 0.0
2017-May-22 04:59N 35°17' E 139°41'0 0.0
2017-May-22 04:29N 35°17' E 139°41'0 0.0
2017-May-22 03:59N 35°17' E 139°41'0 0.0
2017-May-22 03:29N 35°17' E 139°41'0 0.0
2017-May-22 03:00N 35°17' E 139°41'0 0.0
2017-May-22 02:29N 35°17' E 139°41'  
Track history (hours):
 
Tides and Currents Weather Stations Pressure Air Temp Water Temp Dewpoint Dewpoint Depression Visibility Wind Speed Wind Dir Waves Ship Positions

Uraga Maru

Last reported at 2017-Jun-01 02:26 UTC. Time now 2017-Jun-29 03:47 UTC.
Position N 35°08' E 139°38'.
Warning: this ship's position is 28 days out of date.

Length 40 m; draft 2.8 m.

Type: Tug. MMSI: 431101119.

Date/timePositionNaut miles runAvg speedWind from/ knotsBaromVisibWave heightAir tempDewpointWater temp
2017-Jun-01 02:26N 35°08' E 139°38'0 0.0
2017-Jun-01 02:00N 35°08' E 139°38'0 0.0
2017-Jun-01 01:30N 35°08' E 139°38'0 0.0
2017-Jun-01 01:00N 35°08' E 139°38'3 6.3
2017-Jun-01 00:30N 35°07' E 139°41'612.1
2017-Jun-01 00:00N 35°13' E 139°45'510.6
2017-May-31 23:30N 35°18' E 139°42'2 2.8
2017-May-31 22:56N 35°17' E 139°41'0 0.0
2017-May-31 22:29N 35°17' E 139°41'0 0.0
2017-May-31 21:57N 35°17' E 139°41'0 0.0
2017-May-31 21:26N 35°17' E 139°41'0 0.0
2017-May-31 20:15N 35°17' E 139°41'0 0.0
2017-May-31 20:00N 35°17' E 139°41'0 0.0
2017-May-31 19:30N 35°17' E 139°41'0 0.0
2017-May-31 19:00N 35°17' E 139°41'0 0.0
2017-May-31 18:30N 35°17' E 139°41'0 0.0
2017-May-31 18:00N 35°17' E 139°41'0 0.0
2017-May-31 17:30N 35°17' E 139°41'0 0.0
2017-May-31 17:00N 35°17' E 139°41'0 0.0
2017-May-31 16:30N 35°17' E 139°41'0 0.0
2017-May-31 16:00N 35°17' E 139°41'0 0.0
2017-May-31 15:30N 35°17' E 139°41'0 0.0
2017-May-31 15:00N 35°17' E 139°41'0 0.0
2017-May-31 14:30N 35°17' E 139°41'0 0.0
2017-May-31 13:30N 35°17' E 139°41'0 0.0
2017-May-31 13:00N 35°17' E 139°41'0 0.0
2017-May-31 12:28N 35°17' E 139°41'0 0.0
2017-May-31 12:00N 35°17' E 139°41'0 0.0
2017-May-31 11:30N 35°17' E 139°41'0 0.0
2017-May-31 11:00N 35°17' E 139°41'0 0.0
2017-May-31 10:30N 35°17' E 139°41'0 0.0
2017-May-31 10:00N 35°17' E 139°41'0 0.0
2017-May-31 09:30N 35°17' E 139°41'0 0.0
2017-May-31 09:00N 35°17' E 139°41'0 0.0
2017-May-31 08:30N 35°17' E 139°41'0 0.0
2017-May-31 08:00N 35°17' E 139°41'0 0.0
2017-May-31 07:30N 35°17' E 139°41'0 0.0
2017-May-31 07:00N 35°17' E 139°41'0 0.0
2017-May-31 06:30N 35°17' E 139°41'0 0.0
2017-May-31 06:00N 35°17' E 139°41'0 0.0
2017-May-31 05:28N 35°17' E 139°41'0 0.0
2017-May-31 05:00N 35°17' E 139°41'0 0.0
2017-May-31 04:30N 35°17' E 139°41'0 0.0
2017-May-31 04:00N 35°17' E 139°41'0 0.0
2017-May-31 03:29N 35°17' E 139°41'0 0.0
2017-May-31 03:00N 35°17' E 139°41'0 0.0
2017-May-31 02:30N 35°17' E 139°41'0 0.0
2017-May-31 02:00N 35°17' E 139°41'0 0.0
2017-May-31 01:30N 35°17' E 139°41'0 0.0
2017-May-31 00:59N 35°17' E 139°41'0 0.0
2017-May-31 00:29N 35°17' E 139°41'0 0.0
2017-May-30 23:54N 35°17' E 139°41'0 0.0
2017-May-30 23:30N 35°17' E 139°41'4 8.2
2017-May-30 23:00N 35°21' E 139°42'612.0
2017-May-30 22:30N 35°26' E 139°46'1 2.5
2017-May-30 21:59N 35°25' E 139°47'511.2
2017-May-30 21:30N 35°20' E 139°44'611.5
2017-May-30 21:01N 35°14' E 139°47'4 9.0
2017-May-30 20:31N 35°10' E 139°47'4 8.1
2017-May-30 20:00N 35°13' E 139°44'1 1.8
2017-May-30 19:30N 35°13' E 139°43'0 0.0
2017-May-30 18:56N 35°13' E 139°43'0 0.0
2017-May-30 18:26N 35°13' E 139°43'0 0.0
2017-May-30 17:55N 35°13' E 139°43'0 0.0
2017-May-30 17:27N 35°13' E 139°43'0 0.0
2017-May-30 16:57N 35°13' E 139°43'0 0.0
2017-May-30 16:28N 35°13' E 139°43'0 0.0
2017-May-30 15:57N 35°13' E 139°43'0 0.0
2017-May-30 15:23N 35°13' E 139°43'0 0.0
2017-May-30 14:55N 35°13' E 139°43'0 0.0
2017-May-30 14:31N 35°13' E 139°43'3 3.3
2017-May-30 13:31N 35°15' E 139°46'713.1
2017-May-30 13:00N 35°21' E 139°42'3 6.1
2017-May-30 12:30N 35°24' E 139°41'1 1.1
2017-May-30 12:00N 35°23' E 139°40'0 0.0
2017-May-30 11:30N 35°23' E 139°40'0 0.0
2017-May-30 11:00N 35°23' E 139°40'2 3.8
2017-May-30 10:30N 35°24' E 139°42'611.6
2017-May-30 09:59N 35°26' E 139°49'1 2.7
2017-May-30 09:31N 35°26' E 139°50'1 2.7
2017-May-30 09:01N 35°26' E 139°49'5 9.9
2017-May-30 08:30N 35°22' E 139°45'510.6
2017-May-30 08:00N 35°16' E 139°46'510.3
2017-May-30 07:30N 35°11' E 139°47'0 0.8
2017-May-30 07:00N 35°11' E 139°47'4 7.9
2017-May-30 06:30N 35°13' E 139°43'3 5.8
2017-May-30 06:00N 35°15' E 139°46'4 1.6
2017-May-30 03:13N 35°17' E 139°41'2 7.3
2017-May-30 02:59N 35°19' E 139°42'611.6
2017-May-30 02:30N 35°24' E 139°42'3 6.8
2017-May-30 02:00N 35°25' E 139°46'510.3
2017-May-30 01:30N 35°20' E 139°44'611.5
2017-May-30 00:59N 35°15' E 139°47'5 9.8
2017-May-30 00:31N 35°10' E 139°47'4 8.2
2017-May-30 00:00N 35°14' E 139°45'5 9.4
2017-May-29 23:30N 35°17' E 139°41'0 0.9
2017-May-29 23:01N 35°17' E 139°41'0 0.0
2017-May-29 22:31N 35°17' E 139°41'0 0.0
2017-May-29 22:00N 35°17' E 139°41'0 0.0
2017-May-29 21:30N 35°17' E 139°41'0 0.0
2017-May-29 20:59N 35°17' E 139°41'0 0.0
2017-May-29 20:30N 35°17' E 139°41'0 0.0
2017-May-29 20:00N 35°17' E 139°41'0 0.0
2017-May-29 19:29N 35°17' E 139°41'0 0.0
2017-May-29 18:46N 35°17' E 139°41'0 0.0
2017-May-29 18:31N 35°17' E 139°41'0 0.0
2017-May-29 18:00N 35°17' E 139°41'0 0.0
2017-May-29 17:30N 35°17' E 139°41'0 0.0
2017-May-29 17:00N 35°17' E 139°41'0 0.0
2017-May-29 16:27N 35°17' E 139°41'0 0.0
2017-May-29 16:00N 35°17' E 139°41'0 0.0
2017-May-29 15:30N 35°17' E 139°41'0 0.0
2017-May-29 14:59N 35°17' E 139°41'0 0.0
2017-May-29 14:31N 35°17' E 139°41'0 0.0
2017-May-29 13:30N 35°17' E 139°41'0 0.0
2017-May-29 12:48N 35°17' E 139°41'0 0.0
2017-May-29 12:31N 35°17' E 139°41'0 0.0
2017-May-29 12:00N 35°17' E 139°41'0 0.0
2017-May-29 11:29N 35°17' E 139°41'0 0.0
2017-May-29 10:59N 35°17' E 139°41'0 0.0
2017-May-29 10:30N 35°17' E 139°41'0 0.0
2017-May-29 10:00N 35°17' E 139°41'0 0.0
2017-May-29 09:13N 35°17' E 139°41'0 0.0
2017-May-29 09:00N 35°17' E 139°41'0 0.0
2017-May-29 08:29N 35°17' E 139°41'0 0.0
2017-May-29 07:57N 35°17' E 139°41'0 0.0
2017-May-29 07:29N 35°17' E 139°41'0 0.0
2017-May-29 06:58N 35°17' E 139°41'0 0.0
2017-May-29 06:29N 35°17' E 139°41'0 0.0
2017-May-29 06:00N 35°17' E 139°41'0 0.0
2017-May-29 05:30N 35°17' E 139°41'0 0.0
2017-May-29 05:00N 35°17' E 139°41'0 0.0
2017-May-29 04:30N 35°17' E 139°41'0 0.0
2017-May-29 04:00N 35°17' E 139°41'0 0.0
2017-May-29 03:30N 35°17' E 139°41'0 0.0
2017-May-29 03:00N 35°17' E 139°41'0 0.0
2017-May-29 02:30N 35°17' E 139°41'0 0.0
2017-May-29 02:00N 35°17' E 139°41'0 0.0
2017-May-29 01:30N 35°17' E 139°41'0 0.0
2017-May-29 01:00N 35°17' E 139°41'0 0.0
2017-May-29 00:30N 35°17' E 139°41'0 0.0
2017-May-28 23:51N 35°17' E 139°41'0 0.0
2017-May-28 23:28N 35°17' E 139°41'0 0.0
2017-May-28 23:00N 35°17' E 139°41'0 0.0
2017-May-28 22:30N 35°17' E 139°41'0 0.0
2017-May-28 22:00N 35°17' E 139°41'3 6.9
2017-May-28 21:31N 35°20' E 139°41'510.7
2017-May-28 21:00N 35°24' E 139°46'4 8.5
2017-May-28 20:29N 35°20' E 139°44'612.6
2017-May-28 20:00N 35°14' E 139°47'5 9.2
2017-May-28 19:30N 35°10' E 139°47'4 7.8
2017-May-28 19:00N 35°13' E 139°45'1 2.6
2017-May-28 18:30N 35°13' E 139°43'0 0.0
2017-May-28 17:46N 35°13' E 139°43'0 0.0
2017-May-28 17:30N 35°13' E 139°43'0 0.0
2017-May-28 16:59N 35°13' E 139°43'0 0.0
2017-May-28 16:28N 35°13' E 139°43'0 0.0
2017-May-28 15:58N 35°13' E 139°43'0 0.0
2017-May-28 15:27N 35°13' E 139°43'0 0.0
2017-May-28 14:59N 35°13' E 139°43'0 0.0
2017-May-28 14:25N 35°13' E 139°43'0 0.0
2017-May-28 13:15N 35°13' E 139°43'0 0.0
2017-May-28 13:00N 35°13' E 139°43'0 0.0
2017-May-28 12:30N 35°13' E 139°43'0 0.0
2017-May-28 11:59N 35°13' E 139°43'0 0.0
2017-May-28 11:21N 35°13' E 139°43'2 4.7
2017-May-28 11:00N 35°13' E 139°45'3 6.3
2017-May-28 10:30N 35°16' E 139°46'612.4
2017-May-28 10:01N 35°22' E 139°42'3 6.7
2017-May-28 09:30N 35°25' E 139°43'1 1.7
2017-May-28 09:00N 35°25' E 139°42'3 6.5
2017-May-28 08:30N 35°22' E 139°42'612.1
2017-May-28 08:01N 35°16' E 139°46'612.7
2017-May-28 07:31N 35°10' E 139°47'2 4.0
2017-May-28 07:00N 35°12' E 139°46'3 5.9
2017-May-28 06:30N 35°13' E 139°43'4 7.2
2017-May-28 05:59N 35°17' E 139°44'3 6.1
2017-May-28 05:31N 35°17' E 139°41'0 0.0
2017-May-28 05:00N 35°17' E 139°41'0 0.0
2017-May-28 04:30N 35°17' E 139°41'0 0.0
2017-May-28 04:01N 35°17' E 139°41'0 0.1
2017-May-28 03:30N 35°17' E 139°41'0 0.1
2017-May-28 03:00N 35°17' E 139°41'0 0.0
2017-May-28 02:30N 35°17' E 139°41'0 0.0
2017-May-28 02:00N 35°17' E 139°41'0 0.0
2017-May-28 01:31N 35°17' E 139°41'0 0.0
2017-May-28 01:00N 35°17' E 139°41'0 0.0
2017-May-28 00:30N 35°17' E 139°41'0 0.1
2017-May-28 00:00N 35°17' E 139°41'0 0.1
2017-May-27 23:31N 35°17' E 139°41'0 0.5
2017-May-27 23:01N 35°17' E 139°41'0 0.5
2017-May-27 22:30N 35°17' E 139°41'0 0.0
2017-May-27 22:00N 35°17' E 139°41'0 0.0
2017-May-27 21:30N 35°17' E 139°41'0 0.0
2017-May-27 21:00N 35°17' E 139°41'0 0.0
2017-May-27 20:30N 35°17' E 139°41'0 0.0
2017-May-27 20:00N 35°17' E 139°41'0 0.0
2017-May-27 19:31N 35°17' E 139°41'0 0.0
2017-May-27 19:01N 35°17' E 139°41'0 0.0
2017-May-27 18:30N 35°17' E 139°41'0 0.0
2017-May-27 18:00N 35°17' E 139°41'0 0.0
2017-May-27 17:30N 35°17' E 139°41'0 0.0
2017-May-27 17:00N 35°17' E 139°41'0 0.0
2017-May-27 16:31N 35°17' E 139°41'0 0.0
2017-May-27 16:00N 35°17' E 139°41'0 0.0
2017-May-27 15:30N 35°17' E 139°41'0 0.0
2017-May-27 15:00N 35°17' E 139°41'0 0.0
2017-May-27 14:30N 35°17' E 139°41'0 0.0
2017-May-27 13:31N 35°17' E 139°41'0 0.0
2017-May-27 13:00N 35°17' E 139°41'0 0.0
2017-May-27 12:28N 35°17' E 139°41'0 0.0
2017-May-27 11:57N 35°17' E 139°41'0 0.0
2017-May-27 10:52N 35°17' E 139°41'0 0.0
2017-May-27 08:51N 35°17' E 139°41'0 0.0
2017-May-27 08:25N 35°17' E 139°41'0 0.0
2017-May-27 08:00N 35°17' E 139°41'0 0.0
2017-May-27 07:26N 35°17' E 139°41'0 0.0
2017-May-27 07:00N 35°17' E 139°41'0 0.0
2017-May-27 06:30N 35°17' E 139°41'0 0.0
2017-May-27 05:49N 35°17' E 139°41'0 0.0
2017-May-27 03:50N 35°17' E 139°41'0 0.0
2017-May-27 03:29N 35°17' E 139°41'1 2.6
2017-May-27 03:00N 35°18' E 139°42'5 9.7
2017-May-27 02:30N 35°14' E 139°45'2 3.5
2017-May-27 02:01N 35°15' E 139°46'612.0
2017-May-27 01:31N 35°20' E 139°42'611.6
2017-May-27 01:00N 35°26' E 139°45'3 6.4
2017-May-27 00:31N 35°28' E 139°47'0 0.4
2017-May-27 00:00N 35°29' E 139°47'1 1.6
2017-May-26 23:30N 35°28' E 139°46'0 0.5
2017-May-26 23:00N 35°28' E 139°46'4 8.5
2017-May-26 22:30N 35°24' E 139°44'4 8.5
2017-May-26 22:00N 35°20' E 139°43'611.7
2017-May-26 21:30N 35°15' E 139°47'5 9.8
2017-May-26 21:00N 35°10' E 139°47'3 6.7
2017-May-26 20:30N 35°13' E 139°46'510.8
2017-May-26 20:00N 35°18' E 139°42'1 1.8
2017-May-26 19:27N 35°17' E 139°41'0 0.0
2017-May-26 19:00N 35°17' E 139°41'0 0.1
2017-May-26 18:30N 35°17' E 139°41'0 0.1
2017-May-26 17:59N 35°17' E 139°41'0 0.0
2017-May-26 17:30N 35°17' E 139°41'0 0.0
2017-May-26 17:00N 35°17' E 139°41'0 0.1
2017-May-26 16:30N 35°17' E 139°41'0 0.1
2017-May-26 16:00N 35°17' E 139°41'0 0.1
2017-May-26 15:30N 35°17' E 139°41'0 0.1
2017-May-26 15:00N 35°17' E 139°41'0 0.1
2017-May-26 14:30N 35°17' E 139°41'0 0.0
2017-May-26 13:30N 35°17' E 139°41'0 0.0
2017-May-26 13:00N 35°17' E 139°41'0 0.0
2017-May-26 12:30N 35°17' E 139°41'0 0.0
2017-May-26 12:00N 35°17' E 139°41'0 0.0
2017-May-26 11:30N 35°17' E 139°41'0 0.1
2017-May-26 11:00N 35°17' E 139°41'0 0.1
2017-May-26 10:30N 35°17' E 139°41'0 0.1
2017-May-26 10:00N 35°17' E 139°41'0 0.1
2017-May-26 09:30N 35°17' E 139°41'0 0.0
2017-May-26 09:00N 35°17' E 139°41'0 0.4
2017-May-26 08:30N 35°17' E 139°41'1 1.7
2017-May-26 08:00N 35°18' E 139°42'1 1.5
2017-May-26 07:21N 35°17' E 139°41'0 0.0
2017-May-26 07:00N 35°17' E 139°41'0 0.0
2017-May-26 06:30N 35°17' E 139°41'0 0.1
2017-May-26 06:00N 35°17' E 139°41'0 0.1
2017-May-26 05:30N 35°17' E 139°41'0 0.0
2017-May-26 05:00N 35°17' E 139°41'0 0.0
2017-May-26 04:30N 35°17' E 139°41'0 0.0
2017-May-26 03:57N 35°17' E 139°41'1 2.8
2017-May-26 03:30N 35°18' E 139°42'5 9.8
2017-May-26 03:00N 35°14' E 139°45'2 3.9
2017-May-26 02:30N 35°16' E 139°46'510.7
2017-May-26 02:00N 35°20' E 139°42'510.8
2017-May-26 01:30N 35°25' E 139°43'2 4.4
2017-May-26 01:00N 35°28' E 139°44'0 0.4
2017-May-26 00:30N 35°28' E 139°44'3 6.9
2017-May-26 00:00N 35°25' E 139°42'510.6
2017-May-25 23:30N 35°19' E 139°42'2 5.0
2017-May-25 23:00N 35°17' E 139°41'0 0.0
2017-May-25 22:30N 35°17' E 139°41'0 0.0
2017-May-25 22:00N 35°17' E 139°41'0 0.0
2017-May-25 21:30N 35°17' E 139°41'0 0.0
2017-May-25 21:00N 35°17' E 139°41'0 0.1
2017-May-25 20:30N 35°17' E 139°41'0 0.1
2017-May-25 20:00N 35°17' E 139°41'0 0.0
2017-May-25 19:30N 35°17' E 139°41'0 0.1
2017-May-25 19:00N 35°17' E 139°41'0 0.0
2017-May-25 18:30N 35°17' E 139°41'0 0.1
2017-May-25 18:00N 35°17' E 139°41'0 0.0
2017-May-25 17:30N 35°17' E 139°41'0 0.0
2017-May-25 17:00N 35°17' E 139°41'0 0.0
2017-May-25 16:30N 35°17' E 139°41'0 0.0
2017-May-25 16:00N 35°17' E 139°41'0 0.1
2017-May-25 15:30N 35°17' E 139°41'0 0.1
2017-May-25 15:00N 35°17' E 139°41'0 0.0
2017-May-25 14:00N 35°17' E 139°41'0 0.0
2017-May-25 13:30N 35°17' E 139°41'0 0.0
2017-May-25 13:00N 35°17' E 139°41'0 0.0
2017-May-25 12:30N 35°17' E 139°41'0 0.0
2017-May-25 12:00N 35°17' E 139°41'0 0.0
2017-May-25 11:30N 35°17' E 139°41'0 0.0
2017-May-25 11:00N 35°17' E 139°41'0 0.0
2017-May-25 10:30N 35°17' E 139°41'0 0.0
2017-May-25 10:00N 35°17' E 139°41'0 0.0
2017-May-25 09:30N 35°17' E 139°41'0 0.0
2017-May-25 09:00N 35°17' E 139°41'0 0.0
2017-May-25 08:30N 35°17' E 139°41'0 0.0
2017-May-25 08:00N 35°17' E 139°41'0 0.0
2017-May-25 07:30N 35°17' E 139°41'0 0.1
2017-May-25 07:00N 35°17' E 139°41'0 0.1
2017-May-25 06:30N 35°17' E 139°41'0 0.1
2017-May-25 06:00N 35°17' E 139°41'0 0.1
2017-May-25 05:30N 35°17' E 139°41'2 3.8
2017-May-25 05:00N 35°19' E 139°41'1 2.7
2017-May-25 04:30N 35°19' E 139°39'1 1.8
2017-May-25 04:00N 35°19' E 139°40'0 0.0
2017-May-25 03:29N 35°19' E 139°40'0 0.0
2017-May-25 03:00N 35°19' E 139°40'0 0.0
2017-May-25 02:30N 35°19' E 139°40'0 0.0
2017-May-25 02:00N 35°19' E 139°40'2 4.3
2017-May-25 01:30N 35°21' E 139°41'2 3.9
2017-May-25 01:00N 35°20' E 139°43'611.9
2017-May-25 00:30N 35°14' E 139°47'5 9.2
2017-May-25 00:00N 35°10' E 139°47'510.1
2017-May-24 23:30N 35°15' E 139°46'5 9.1
2017-May-24 22:59N 35°17' E 139°41'0 0.0
2017-May-24 21:22N 35°17' E 139°41'0 0.0
2017-May-24 21:00N 35°17' E 139°41'0 0.0
2017-May-24 20:31N 35°17' E 139°41'0 0.0
2017-May-24 20:01N 35°17' E 139°41'0 0.0
2017-May-24 19:15N 35°17' E 139°41'0 0.0
2017-May-24 17:33N 35°17' E 139°41'0 0.0
2017-May-24 17:20N 35°17' E 139°41'0 0.1
2017-May-24 16:58N 35°17' E 139°41'0 0.0
2017-May-24 16:30N 35°17' E 139°41'0 0.0
2017-May-24 15:56N 35°17' E 139°41'0 0.1
2017-May-24 15:30N 35°17' E 139°41'0 0.1
2017-May-24 14:49N 35°17' E 139°41'0 0.0
2017-May-24 14:28N 35°17' E 139°41'0 0.0
2017-May-24 13:29N 35°17' E 139°41'0 0.1
2017-May-24 13:00N 35°17' E 139°41'0 0.0
2017-May-24 12:30N 35°17' E 139°41'0 0.0
2017-May-24 11:16N 35°17' E 139°41'0 0.0
2017-May-24 10:57N 35°17' E 139°41'0 0.1
2017-May-24 10:26N 35°17' E 139°41'0 0.0
2017-May-24 09:53N 35°17' E 139°41'0 0.0
2017-May-24 09:29N 35°17' E 139°41'0 0.0
2017-May-24 09:00N 35°17' E 139°41'0 0.0
2017-May-24 08:31N 35°17' E 139°41'0 0.0
2017-May-24 07:59N 35°17' E 139°41'0 0.0
2017-May-24 07:31N 35°17' E 139°41'0 0.0
2017-May-24 07:01N 35°17' E 139°41'0 0.8
2017-May-24 06:31N 35°17' E 139°41'510.4
2017-May-24 06:00N 35°22' E 139°42'2 3.9
2017-May-24 05:30N 35°21' E 139°43'612.1
2017-May-24 05:00N 35°15' E 139°47'510.9
2017-May-24 04:30N 35°10' E 139°47'4 7.4
2017-May-24 04:00N 35°13' E 139°44'1 1.5
2017-May-24 03:28N 35°13' E 139°43'0 0.0
2017-May-24 02:59N 35°13' E 139°43'0 0.0
2017-May-24 02:29N 35°13' E 139°43'3 5.8
2017-May-24 02:00N 35°13' E 139°46'510.3
2017-May-24 01:30N 35°18' E 139°44'612.1
2017-May-24 01:00N 35°23' E 139°42'4 8.9
2017-May-24 00:30N 35°25' E 139°48'4 7.1
2017-May-24 00:00N 35°21' E 139°49'0 0.4
2017-May-23 23:30N 35°21' E 139°49'2 4.1
2017-May-23 23:00N 35°21' E 139°46'611.2
2017-May-23 22:30N 35°17' E 139°41'1 1.3
2017-May-23 22:00N 35°17' E 139°41'0 0.0
2017-May-23 21:30N 35°17' E 139°41'0 0.0
2017-May-23 20:58N 35°17' E 139°41'0 0.0
2017-May-23 20:30N 35°17' E 139°41'0 0.0
2017-May-23 19:59N 35°17' E 139°41'0 0.0
2017-May-23 19:29N 35°17' E 139°41'0 0.0
2017-May-23 18:58N 35°17' E 139°41'0 0.0
2017-May-23 18:30N 35°17' E 139°41'0 0.0
2017-May-23 18:00N 35°17' E 139°41'0 0.0
2017-May-23 17:30N 35°17' E 139°41'0 0.0
2017-May-23 17:00N 35°17' E 139°41'0 0.0
2017-May-23 16:28N 35°17' E 139°41'0 0.0
2017-May-23 15:58N 35°17' E 139°41'0 0.0
2017-May-23 15:30N 35°17' E 139°41'0 0.0
2017-May-23 15:00N 35°17' E 139°41'0 0.0
2017-May-23 14:25N 35°17' E 139°41'0 0.0
2017-May-23 13:30N 35°17' E 139°41'0 0.0
2017-May-23 12:59N 35°17' E 139°41'0 0.0
2017-May-23 12:29N 35°17' E 139°41'0 0.0
2017-May-23 12:00N 35°17' E 139°41'0 0.0
2017-May-23 11:29N 35°17' E 139°41'0 0.0
2017-May-23 10:51N 35°17' E 139°41'0 0.0
2017-May-23 10:30N 35°17' E 139°41'0 0.0
2017-May-23 09:58N 35°17' E 139°41'0 0.0
2017-May-23 09:28N 35°17' E 139°41'0 0.0
2017-May-23 09:00N 35°17' E 139°41'0 0.0
2017-May-23 08:30N 35°17' E 139°41'0 0.0
2017-May-23 08:00N 35°17' E 139°41'0 0.0
2017-May-23 07:30N 35°17' E 139°41'0 0.0
2017-May-23 07:00N 35°17' E 139°41'1 2.7
2017-May-23 06:31N 35°18' E 139°42'5 9.3
2017-May-23 06:00N 35°13' E 139°44'1 0.8
2017-May-23 04:39N 35°13' E 139°43'0 0.0
2017-May-23 04:30N 35°13' E 139°43'0 0.0
2017-May-23 04:00N 35°13' E 139°43'0 0.0
2017-May-23 03:30N 35°13' E 139°43'3 5.7
2017-May-23 03:00N 35°12' E 139°46'5 9.3
2017-May-23 02:29N 35°17' E 139°45'611.9
2017-May-23 02:00N 35°22' E 139°42'510.4
2017-May-23 01:30N 35°27' E 139°44'1 1.2
2017-May-23 01:00N 35°28' E 139°44'0 0.1
2017-May-23 00:30N 35°28' E 139°44'3 6.4
2017-May-23 00:00N 35°25' E 139°43'510.9
2017-May-22 23:30N 35°19' E 139°42'3 4.9
2017-May-22 22:59N 35°17' E 139°41'0 0.0
2017-May-22 22:29N 35°17' E 139°41'0 0.0
2017-May-22 22:00N 35°17' E 139°41'0 0.0
2017-May-22 21:30N 35°17' E 139°41'0 0.0
2017-May-22 20:54N 35°17' E 139°41'0 0.0
2017-May-22 20:29N 35°17' E 139°41'0 0.0
2017-May-22 20:00N 35°17' E 139°41'0 0.0
2017-May-22 19:14N 35°17' E 139°41'0 0.0
2017-May-22 17:55N 35°17' E 139°41'0 0.0
2017-May-22 17:28N 35°17' E 139°41'0 0.0
2017-May-22 16:59N 35°17' E 139°41'0 0.0
2017-May-22 16:30N 35°17' E 139°41'0 0.0
2017-May-22 16:00N 35°17' E 139°41'0 0.0
2017-May-22 15:30N 35°17' E 139°41'0 0.0
2017-May-22 15:00N 35°17' E 139°41'0 0.0
2017-May-22 13:58N 35°17' E 139°41'0 0.0
2017-May-22 13:29N 35°17' E 139°41'0 0.0
2017-May-22 13:00N 35°17' E 139°41'0 0.0
2017-May-22 12:30N 35°17' E 139°41'0 0.0
2017-May-22 12:00N 35°17' E 139°41'0 0.0
2017-May-22 11:29N 35°17' E 139°41'0 0.0
2017-May-22 11:00N 35°17' E 139°41'0 0.0
2017-May-22 10:29N 35°17' E 139°41'0 0.0
2017-May-22 10:00N 35°17' E 139°41'0 0.0
2017-May-22 09:30N 35°17' E 139°41'0 0.0
2017-May-22 09:00N 35°17' E 139°41'0 0.0
2017-May-22 08:22N 35°17' E 139°41'0 0.0
2017-May-22 07:59N 35°17' E 139°41'0 0.0
2017-May-22 07:26N 35°17' E 139°41'0 0.0
2017-May-22 06:52N 35°17' E 139°41'0 0.0
2017-May-22 06:26N 35°17' E 139°41'0 0.0
2017-May-22 05:58N 35°17' E 139°41'0 0.0
2017-May-22 05:30N 35°17' E 139°41'0 0.0
2017-May-22 04:59N 35°17' E 139°41'0 0.0
2017-May-22 04:29N 35°17' E 139°41'0 0.0
2017-May-22 03:59N 35°17' E 139°41'0 0.0
2017-May-22 03:29N 35°17' E 139°41'0 0.0
2017-May-22 03:00N 35°17' E 139°41'0 0.0
2017-May-22 02:29N 35°17' E 139°41'  

Dump ship's entire track history